createdAt,value
2023-01-06T00:04:27.932Z,72.65
2023-01-06T00:09:22.000Z,85.10
2023-01-06T00:14:16.653Z,94.85
2023-01-06T00:19:13.762Z,79.50
2023-01-06T00:24:07.877Z,122.72
2023-01-06T00:29:02.162Z,144.05
2023-01-06T00:34:16.336Z,116.55
2023-01-06T00:39:10.384Z,113.70
2023-01-06T00:44:04.726Z,124.55
2023-01-06T00:49:04.992Z,175.40
2023-01-06T00:54:02.699Z,119.75
2023-01-06T00:58:55.737Z,126.28
2023-01-06T01:03:50.851Z,94.43
2023-01-06T01:08:44.749Z,156.02
2023-01-06T01:13:39.104Z,103.55
2023-01-06T01:18:33.150Z,103.30
2023-01-06T01:23:26.926Z,127.88
2023-01-06T01:28:20.603Z,64.13
2023-01-06T01:33:13.651Z,68.93
2023-01-06T01:38:07.220Z,111.03
2023-01-06T01:42:59.901Z,227.70
2023-01-06T01:48:04.280Z,198.65
2023-01-06T01:53:01.808Z,119.25
2023-01-06T01:57:59.942Z,127.57
2023-01-06T02:02:53.657Z,123.07
2023-01-06T02:07:50.744Z,95.28
2023-01-06T02:12:44.420Z,83.88
2023-01-06T02:17:49.574Z,61.00
2023-01-06T02:23:00.366Z,70.75
2023-01-06T02:28:26.482Z,71.40
2023-01-06T02:33:35.284Z,121.90
2023-01-06T02:38:36.741Z,430.03
2023-01-06T02:44:01.898Z,69.10
2023-01-06T02:49:29.621Z,108.10
2023-01-06T02:54:40.208Z,106.22
2023-01-06T03:00:05.998Z,148.10
2023-01-06T03:05:01.294Z,94.45
2023-01-06T03:09:55.378Z,89.18
2023-01-06T03:14:52.318Z,299.20
2023-01-06T03:19:46.576Z,190.32
2023-01-06T03:24:41.355Z,114.93
2023-01-06T03:29:36.175Z,72.72
2023-01-06T03:35:05.163Z,66.30
2023-01-06T03:40:41.546Z,327.60
2023-01-06T03:45:46.024Z,177.15
2023-01-06T03:51:07.349Z,194.70
2023-01-06T03:56:24.589Z,138.40
2023-01-06T04:01:19.084Z,163.57
2023-01-06T04:06:12.507Z,174.65
2023-01-06T04:11:06.413Z,212.85
2023-01-06T04:16:00.289Z,122.65
2023-01-06T04:20:53.755Z,133.98
2023-01-06T04:25:52.988Z,152.88
2023-01-06T04:30:58.929Z,146.75
2023-01-06T04:35:52.544Z,135.63
2023-01-06T04:40:47.489Z,126.13
2023-01-06T04:45:42.206Z,120.68
2023-01-06T04:50:35.693Z,62.20
2023-01-06T04:55:30.221Z,108.25
2023-01-06T05:00:23.760Z,70.28
2023-01-06T05:05:18.255Z,132.80
2023-01-06T05:10:11.829Z,112.22
2023-01-06T05:15:06.890Z,59.70
2023-01-06T05:20:01.211Z,30.40
2023-01-06T05:24:54.813Z,33.53
2023-01-06T05:29:49.137Z,25.80
2023-01-06T05:34:42.830Z,24.45
2023-01-06T05:39:36.283Z,25.90
2023-01-06T05:44:30.681Z,19.73
2023-01-06T05:49:24.511Z,18.58
2023-01-06T05:54:18.381Z,20.65
2023-01-06T05:59:12.360Z,17.63
2023-01-06T06:04:06.288Z,16.80
2023-01-06T06:09:00.718Z,18.45
2023-01-06T06:13:56.061Z,21.55
2023-01-06T06:18:54.150Z,16.30
2023-01-06T06:23:48.621Z,17.52
2023-01-06T06:28:42.653Z,20.15
2023-01-06T06:33:36.071Z,17.80
2023-01-06T06:38:30.594Z,17.65
2023-01-06T06:43:24.477Z,17.92
2023-01-06T06:48:18.156Z,16.25
2023-01-06T06:53:10.803Z,15.15
2023-01-06T06:58:04.477Z,15.70
2023-01-06T07:02:58.698Z,18.52
2023-01-06T07:07:52.559Z,16.85
2023-01-06T07:12:46.619Z,16.00
2023-01-06T07:17:42.678Z,16.10
2023-01-06T07:22:42.404Z,16.65
2023-01-06T07:27:35.344Z,19.27
2023-01-06T07:32:28.388Z,30.23
2023-01-06T07:37:22.417Z,24.20
2023-01-06T07:42:15.884Z,20.40
2023-01-06T07:47:11.072Z,20.65
2023-01-06T07:52:05.126Z,27.52
2023-01-06T07:56:58.671Z,28.42
2023-01-06T08:01:52.177Z,31.13
2023-01-06T08:06:46.008Z,24.88
2023-01-06T08:11:40.270Z,23.70
2023-01-06T08:16:33.353Z,29.05
2023-01-06T08:21:28.096Z,27.10
2023-01-06T08:26:22.541Z,26.85
2023-01-06T08:31:18.442Z,23.05
2023-01-06T08:36:15.706Z,27.20
2023-01-06T08:41:09.449Z,28.90
2023-01-06T08:46:04.622Z,25.35
2023-01-06T08:51:06.462Z,25.30
2023-01-06T08:56:00.156Z,26.80
2023-01-06T09:00:53.819Z,32.45
2023-01-06T09:05:58.035Z,34.15
2023-01-06T09:10:52.147Z,34.35
2023-01-06T09:15:49.447Z,34.67
2023-01-06T09:20:43.156Z,31.33
2023-01-06T09:25:36.948Z,35.38
2023-01-06T09:30:30.695Z,36.60
2023-01-06T09:35:24.370Z,39.67
2023-01-06T09:40:26.086Z,33.00
2023-01-06T09:45:31.245Z,33.75
2023-01-06T09:50:38.969Z,34.42
2023-01-06T09:55:43.751Z,36.13
2023-01-06T10:00:43.189Z,29.27
2023-01-06T10:06:12.893Z,27.45
2023-01-06T10:11:44.577Z,26.35
2023-01-06T10:17:02.428Z,26.02
2023-01-06T10:22:23.635Z,24.90
2023-01-06T10:27:43.448Z,22.35
2023-01-06T10:37:39.315Z,23.73
2023-01-06T10:42:58.447Z,20.90
2023-01-06T10:47:51.849Z,24.75
2023-01-06T10:52:46.797Z,24.50
2023-01-06T10:57:41.911Z,24.08
2023-01-06T11:02:36.361Z,25.90
2023-01-06T11:07:31.079Z,25.20
2023-01-06T11:12:30.539Z,22.80
2023-01-06T11:17:23.708Z,23.70
2023-01-06T11:22:35.037Z,22.05
2023-01-06T11:27:29.127Z,25.30
2023-01-06T11:32:27.552Z,23.75
2023-01-06T11:37:43.650Z,24.13
2023-01-06T11:42:36.904Z,27.35
2023-01-06T11:47:31.128Z,26.17
2023-01-06T11:52:27.810Z,25.02
2023-01-06T11:57:29.752Z,29.70
2023-01-06T12:02:29.516Z,30.80
2023-01-06T12:07:30.053Z,29.73
2023-01-06T12:12:27.310Z,35.42
2023-01-06T12:17:47.635Z,30.85
2023-01-06T12:28:08.572Z,30.70
2023-01-06T12:33:44.411Z,32.22
2023-01-06T12:39:17.101Z,31.77
2023-01-06T12:45:00.489Z,34.42
2023-01-06T12:50:15.898Z,34.03
2023-01-06T12:55:14.473Z,32.17
2023-01-06T13:00:16.475Z,42.17
2023-01-06T13:05:37.859Z,53.13
2023-01-06T13:10:32.167Z,51.10
2023-01-06T13:15:33.691Z,52.72
2023-01-06T13:20:30.031Z,56.10
2023-01-06T13:26:00.121Z,67.13
2023-01-06T13:31:24.242Z,58.72
2023-01-06T13:36:35.988Z,66.35
2023-01-06T13:41:49.965Z,63.38
2023-01-06T13:46:43.493Z,63.90
2023-01-06T13:51:39.054Z,68.85
2023-01-06T13:56:37.400Z,61.22
2023-01-06T14:01:30.533Z,68.55
2023-01-06T14:06:23.583Z,66.32
2023-01-06T14:11:33.720Z,62.58
2023-01-06T14:16:58.440Z,60.35
2023-01-06T14:21:54.361Z,58.28
2023-01-06T14:26:52.983Z,101.38
2023-01-06T14:31:47.055Z,63.42
2023-01-06T14:36:40.354Z,60.72
2023-01-06T14:41:35.439Z,59.42
2023-01-06T14:46:34.781Z,58.20
2023-01-06T14:51:28.228Z,54.03
2023-01-06T14:56:23.787Z,56.28
2023-01-06T15:01:32.145Z,55.15
2023-01-06T15:06:27.626Z,52.90
2023-01-06T15:11:31.620Z,48.53
2023-01-06T15:16:27.194Z,51.63
2023-01-06T15:21:21.522Z,47.03
2023-01-06T15:26:19.420Z,51.30
2023-01-06T15:31:19.486Z,49.70
2023-01-06T15:36:17.887Z,43.60
2023-01-06T15:41:31.866Z,49.73
2023-01-06T15:46:28.044Z,46.83
2023-01-06T15:51:22.772Z,48.83
2023-01-06T15:56:22.177Z,46.30
2023-01-06T16:01:21.053Z,44.67
2023-01-06T16:06:17.386Z,49.70
2023-01-06T16:11:17.300Z,52.05
2023-01-06T16:16:16.405Z,54.63
2023-01-06T16:21:30.712Z,60.58
2023-01-06T16:26:27.512Z,70.95
2023-01-06T16:31:34.659Z,74.20
2023-01-06T16:36:28.196Z,87.28
2023-01-06T16:41:21.891Z,62.45
2023-01-06T16:46:22.394Z,59.35
2023-01-06T16:51:18.946Z,71.60
2023-01-06T16:56:43.118Z,50.50
2023-01-06T17:01:36.491Z,50.25
2023-01-06T17:06:30.725Z,50.80
2023-01-06T17:11:26.559Z,43.67
2023-01-06T17:16:22.637Z,43.60
2023-01-06T17:21:20.825Z,49.22
2023-01-06T17:26:16.449Z,47.33
2023-01-06T17:31:33.777Z,54.17
2023-01-06T17:36:36.374Z,52.53
2023-01-06T17:41:30.993Z,53.40
2023-01-06T17:46:30.617Z,50.72
2023-01-06T17:51:23.741Z,46.50
2023-01-06T17:56:17.403Z,45.15
2023-01-06T18:01:17.213Z,42.78
2023-01-06T18:06:19.130Z,53.53
2023-01-06T18:11:11.302Z,42.28
2023-01-06T18:16:13.238Z,56.08
2023-01-06T18:21:26.479Z,58.72
2023-01-06T18:26:28.473Z,54.75
2023-01-06T18:31:24.106Z,50.35
2023-01-06T18:36:18.198Z,52.17
2023-01-06T18:41:21.061Z,56.60
2023-01-06T18:46:17.422Z,55.00
2023-01-06T18:51:20.914Z,58.70
2023-01-06T18:56:27.728Z,77.70
2023-01-06T19:01:28.933Z,65.95
2023-01-06T19:06:35.438Z,66.88
2023-01-06T19:11:29.866Z,61.47
2023-01-06T19:16:39.108Z,60.17
2023-01-06T19:21:32.796Z,67.07
2023-01-06T19:26:32.785Z,53.75
2023-01-06T19:31:27.148Z,62.28
2023-01-06T19:36:44.541Z,57.65
2023-01-06T19:41:37.905Z,57.38
2023-01-06T19:46:38.381Z,54.30
2023-01-06T19:51:35.227Z,54.40
2023-01-06T19:56:33.859Z,61.05
2023-01-06T20:01:28.160Z,57.65
2023-01-06T20:06:26.371Z,49.40
2023-01-06T20:11:19.541Z,49.92
2023-01-06T20:16:12.220Z,59.42
2023-01-06T20:21:06.601Z,54.17
2023-01-06T20:25:59.673Z,55.30
2023-01-06T20:30:53.715Z,57.67
2023-01-06T20:35:47.983Z,54.42
2023-01-06T20:40:41.906Z,55.13
2023-01-06T20:45:35.093Z,45.85
2023-01-06T20:50:28.391Z,53.17
2023-01-06T20:55:22.295Z,48.88
2023-01-06T21:00:16.969Z,54.30
2023-01-06T21:05:11.934Z,76.68
2023-01-06T21:10:12.669Z,52.70
2023-01-06T21:15:09.916Z,56.53
2023-01-06T21:20:03.557Z,54.13
2023-01-06T21:24:57.867Z,70.85
2023-01-06T21:29:51.353Z,49.78
2023-01-06T21:34:44.940Z,51.90
2023-01-06T21:39:38.849Z,65.15
2023-01-06T21:44:32.898Z,64.75
2023-01-06T21:49:26.509Z,65.95
2023-01-06T21:54:20.268Z,62.42
2023-01-06T21:59:14.161Z,63.22
2023-01-06T22:04:08.191Z,57.60
2023-01-06T22:09:06.259Z,63.05
2023-01-06T22:14:00.119Z,57.50
2023-01-06T22:18:55.186Z,58.45
2023-01-06T22:23:49.387Z,62.03
2023-01-06T22:28:43.683Z,67.65
2023-01-06T22:33:37.093Z,59.53
2023-01-06T22:38:30.816Z,57.33
2023-01-06T22:43:25.103Z,62.13
2023-01-06T22:48:19.269Z,65.50
2023-01-06T22:53:13.621Z,64.65
2023-01-06T22:58:08.523Z,72.38
2023-01-06T23:03:02.773Z,63.05
2023-01-06T23:07:56.567Z,68.70
2023-01-06T23:12:49.832Z,62.72
2023-01-06T23:17:44.299Z,61.78
2023-01-06T23:22:38.000Z,59.05
2023-01-06T23:27:31.660Z,59.63
2023-01-06T23:32:25.283Z,61.17
2023-01-06T23:37:17.976Z,55.70
2023-01-06T23:42:12.089Z,55.83
2023-01-06T23:47:08.085Z,56.28
2023-01-06T23:52:02.479Z,54.95
2023-01-06T23:56:56.523Z,49.28
